<?xml version="1.0" encoding="UTF-8" standalone="no" ?>
<gpx xmlns="http://www.topografix.com/GPX/1/1" creator="MapSource 6.11.6" version="1.1" xmlns:xsi="http://www.w3.org/2001/XMLSchema-instance" xsi:schemaLocation="http://www.topografix.com/GPX/1/1 http://www.topografix.com/GPX/1/1/gpx.xsd">

  <metadata>
    <link href="http://www.garmin.com">
      <text>Garmin International</text>
    </link>
    <time>2009-08-25T08:44:37Z</time>
    <bounds maxlat="50.734340" maxlon="6.548634" minlat="50.721866" minlon="6.540515"/>
  </metadata>

  <trk>
    <name>Ziegenmelkerweg</name>
    <extensions>
      <gpxx:TrackExtension xmlns:gpxx="http://www.garmin.com/xmlschemas/GpxExtensions/v3" xmlns:xsi="http://www.w3.org/2001/XMLSchema-instance" xsi:schemaLocation="http://www.garmin.com/xmlschemas/GpxExtensions/v3 http://www.garmin.com/xmlschemas/GpxExtensions/v3/GpxExtensionsv3.xsd">
        <gpxx:DisplayColor>Red</gpxx:DisplayColor>
      </gpxx:TrackExtension>
    </extensions>
    <trkseg>
      <trkpt lat="50.722374" lon="6.546931"/>
      <trkpt lat="50.722455" lon="6.547613"/>
      <trkpt lat="50.722617" lon="6.548251"/>
      <trkpt lat="50.722725" lon="6.548634"/>
      <trkpt lat="50.723506" lon="6.548123"/>
      <trkpt lat="50.724153" lon="6.547698"/>
      <trkpt lat="50.724800" lon="6.547102"/>
      <trkpt lat="50.725689" lon="6.546421"/>
      <trkpt lat="50.726390" lon="6.545867"/>
      <trkpt lat="50.727171" lon="6.545442"/>
      <trkpt lat="50.727602" lon="6.545442"/>
      <trkpt lat="50.728249" lon="6.546336"/>
      <trkpt lat="50.729165" lon="6.545442"/>
      <trkpt lat="50.730109" lon="6.544846"/>
      <trkpt lat="50.730917" lon="6.544037"/>
      <trkpt lat="50.732103" lon="6.543100"/>
      <trkpt lat="50.732938" lon="6.542589"/>
      <trkpt lat="50.733908" lon="6.541951"/>
      <trkpt lat="50.734340" lon="6.541270"/>
      <trkpt lat="50.734205" lon="6.540887"/>
      <trkpt lat="50.734210" lon="6.540904">
        <ele>202.980000</ele>
        <time>2009-08-23T10:42:03Z</time>
      </trkpt>
      <trkpt lat="50.734201" lon="6.540927">
        <ele>202.980000</ele>
        <time>2009-08-23T10:42:02Z</time>
      </trkpt>
      <trkpt lat="50.733989" lon="6.541175">
        <ele>203.460000</ele>
        <time>2009-08-23T10:41:44Z</time>
      </trkpt>
      <trkpt lat="50.733824" lon="6.541291">
        <ele>203.940000</ele>
        <time>2009-08-23T10:41:30Z</time>
      </trkpt>
      <trkpt lat="50.733717" lon="6.541407">
        <ele>203.940000</ele>
        <time>2009-08-23T10:41:19Z</time>
      </trkpt>
      <trkpt lat="50.733519" lon="6.541567">
        <ele>204.900000</ele>
        <time>2009-08-23T10:41:04Z</time>
      </trkpt>
      <trkpt lat="50.733322" lon="6.541681">
        <ele>204.900000</ele>
        <time>2009-08-23T10:40:50Z</time>
      </trkpt>
      <trkpt lat="50.733112" lon="6.541803">
        <ele>204.900000</ele>
        <time>2009-08-23T10:40:35Z</time>
      </trkpt>
      <trkpt lat="50.732937" lon="6.541839">
        <ele>205.380000</ele>
        <time>2009-08-23T10:40:22Z</time>
      </trkpt>
      <trkpt lat="50.732797" lon="6.541819">
        <ele>205.380000</ele>
        <time>2009-08-23T10:40:10Z</time>
      </trkpt>
      <trkpt lat="50.732713" lon="6.541746">
        <ele>205.380000</ele>
        <time>2009-08-23T10:40:03Z</time>
      </trkpt>
      <trkpt lat="50.732540" lon="6.541543">
        <ele>205.380000</ele>
        <time>2009-08-23T10:39:49Z</time>
      </trkpt>
      <trkpt lat="50.732495" lon="6.541442">
        <ele>204.900000</ele>
        <time>2009-08-23T10:39:43Z</time>
      </trkpt>
      <trkpt lat="50.732452" lon="6.541199">
        <ele>204.900000</ele>
        <time>2009-08-23T10:39:30Z</time>
      </trkpt>
      <trkpt lat="50.732299" lon="6.541039">
        <ele>205.380000</ele>
        <time>2009-08-23T10:39:16Z</time>
      </trkpt>
      <trkpt lat="50.732194" lon="6.540892">
        <ele>205.860000</ele>
        <time>2009-08-23T10:39:06Z</time>
      </trkpt>
      <trkpt lat="50.732150" lon="6.540811">
        <ele>205.860000</ele>
        <time>2009-08-23T10:39:01Z</time>
      </trkpt>
      <trkpt lat="50.732080" lon="6.540701">
        <ele>205.380000</ele>
        <time>2009-08-23T10:38:55Z</time>
      </trkpt>
      <trkpt lat="50.731959" lon="6.540617">
        <ele>206.340000</ele>
        <time>2009-08-23T10:38:44Z</time>
      </trkpt>
      <trkpt lat="50.731835" lon="6.540515">
        <ele>206.340000</ele>
        <time>2009-08-23T10:38:35Z</time>
      </trkpt>
      <trkpt lat="50.731667" lon="6.540600">
        <ele>206.820000</ele>
        <time>2009-08-23T10:38:21Z</time>
      </trkpt>
      <trkpt lat="50.731547" lon="6.540687">
        <ele>206.820000</ele>
        <time>2009-08-23T10:38:11Z</time>
      </trkpt>
      <trkpt lat="50.731492" lon="6.540707">
        <ele>206.820000</ele>
        <time>2009-08-23T10:38:07Z</time>
      </trkpt>
      <trkpt lat="50.731272" lon="6.540778">
        <ele>207.780000</ele>
        <time>2009-08-23T10:37:52Z</time>
      </trkpt>
      <trkpt lat="50.731174" lon="6.540820">
        <ele>207.780000</ele>
        <time>2009-08-23T10:37:45Z</time>
      </trkpt>
      <trkpt lat="50.731070" lon="6.540848">
        <ele>207.780000</ele>
        <time>2009-08-23T10:37:37Z</time>
      </trkpt>
      <trkpt lat="50.730934" lon="6.540971">
        <ele>208.260000</ele>
        <time>2009-08-23T10:37:26Z</time>
      </trkpt>
      <trkpt lat="50.730727" lon="6.541098">
        <ele>207.780000</ele>
        <time>2009-08-23T10:37:11Z</time>
      </trkpt>
      <trkpt lat="50.730600" lon="6.541135">
        <ele>207.300000</ele>
        <time>2009-08-23T10:37:02Z</time>
      </trkpt>
      <trkpt lat="50.730527" lon="6.541121">
        <ele>207.780000</ele>
        <time>2009-08-23T10:36:58Z</time>
      </trkpt>
      <trkpt lat="50.730445" lon="6.541098">
        <ele>207.300000</ele>
        <time>2009-08-23T10:36:50Z</time>
      </trkpt>
      <trkpt lat="50.730300" lon="6.541119">
        <ele>207.300000</ele>
        <time>2009-08-23T10:36:38Z</time>
      </trkpt>
      <trkpt lat="50.730121" lon="6.541181">
        <ele>207.300000</ele>
        <time>2009-08-23T10:36:23Z</time>
      </trkpt>
      <trkpt lat="50.729874" lon="6.541101">
        <ele>206.820000</ele>
        <time>2009-08-23T10:36:09Z</time>
      </trkpt>
      <trkpt lat="50.729713" lon="6.541189">
        <ele>205.860000</ele>
        <time>2009-08-23T10:35:54Z</time>
      </trkpt>
      <trkpt lat="50.729554" lon="6.541184">
        <ele>205.860000</ele>
        <time>2009-08-23T10:35:41Z</time>
      </trkpt>
      <trkpt lat="50.729423" lon="6.541473">
        <ele>204.900000</ele>
        <time>2009-08-23T10:35:26Z</time>
      </trkpt>
      <trkpt lat="50.729425" lon="6.541518">
        <ele>205.380000</ele>
        <time>2009-08-23T10:35:23Z</time>
      </trkpt>
      <trkpt lat="50.729409" lon="6.541567">
        <ele>204.900000</ele>
        <time>2009-08-23T10:35:20Z</time>
      </trkpt>
      <trkpt lat="50.729391" lon="6.541622">
        <ele>204.420000</ele>
        <time>2009-08-23T10:35:16Z</time>
      </trkpt>
      <trkpt lat="50.729165" lon="6.541767">
        <ele>203.940000</ele>
        <time>2009-08-23T10:35:03Z</time>
      </trkpt>
      <trkpt lat="50.728957" lon="6.541854">
        <ele>203.460000</ele>
        <time>2009-08-23T10:34:47Z</time>
      </trkpt>
      <trkpt lat="50.728656" lon="6.542001">
        <ele>203.460000</ele>
        <time>2009-08-23T10:34:22Z</time>
      </trkpt>
      <trkpt lat="50.728591" lon="6.542052">
        <ele>203.460000</ele>
        <time>2009-08-23T10:34:18Z</time>
      </trkpt>
      <trkpt lat="50.728528" lon="6.542039">
        <ele>202.980000</ele>
        <time>2009-08-23T10:31:23Z</time>
      </trkpt>
      <trkpt lat="50.728556" lon="6.542017">
        <ele>202.490000</ele>
        <time>2009-08-23T10:29:01Z</time>
      </trkpt>
      <trkpt lat="50.728572" lon="6.542001">
        <ele>203.940000</ele>
        <time>2009-08-23T10:26:38Z</time>
      </trkpt>
      <trkpt lat="50.728463" lon="6.542090">
        <ele>203.940000</ele>
        <time>2009-08-23T10:26:23Z</time>
      </trkpt>
      <trkpt lat="50.728394" lon="6.542132">
        <ele>203.940000</ele>
        <time>2009-08-23T10:26:19Z</time>
      </trkpt>
      <trkpt lat="50.728326" lon="6.542150">
        <ele>203.940000</ele>
        <time>2009-08-23T10:26:13Z</time>
      </trkpt>
      <trkpt lat="50.728082" lon="6.542195">
        <ele>203.940000</ele>
        <time>2009-08-23T10:25:55Z</time>
      </trkpt>
      <trkpt lat="50.727962" lon="6.542216">
        <ele>204.900000</ele>
        <time>2009-08-23T10:25:44Z</time>
      </trkpt>
      <trkpt lat="50.727783" lon="6.542252">
        <ele>205.380000</ele>
        <time>2009-08-23T10:25:31Z</time>
      </trkpt>
      <trkpt lat="50.727622" lon="6.542305">
        <ele>205.380000</ele>
        <time>2009-08-23T10:25:20Z</time>
      </trkpt>
      <trkpt lat="50.727466" lon="6.542379">
        <ele>205.380000</ele>
        <time>2009-08-23T10:25:09Z</time>
      </trkpt>
      <trkpt lat="50.727322" lon="6.542426">
        <ele>205.860000</ele>
        <time>2009-08-23T10:24:56Z</time>
      </trkpt>
      <trkpt lat="50.727124" lon="6.542456">
        <ele>206.820000</ele>
        <time>2009-08-23T10:24:42Z</time>
      </trkpt>
      <trkpt lat="50.726911" lon="6.542537">
        <ele>206.820000</ele>
        <time>2009-08-23T10:24:28Z</time>
      </trkpt>
      <trkpt lat="50.726887" lon="6.542548">
        <ele>206.820000</ele>
        <time>2009-08-23T10:24:27Z</time>
      </trkpt>
      <trkpt lat="50.726757" lon="6.542600">
        <ele>206.820000</ele>
        <time>2009-08-23T10:24:13Z</time>
      </trkpt>
      <trkpt lat="50.726591" lon="6.542685">
        <ele>207.780000</ele>
        <time>2009-08-23T10:23:58Z</time>
      </trkpt>
      <trkpt lat="50.726403" lon="6.542743">
        <ele>208.260000</ele>
        <time>2009-08-23T10:23:44Z</time>
      </trkpt>
      <trkpt lat="50.726210" lon="6.542827">
        <ele>209.220000</ele>
        <time>2009-08-23T10:23:30Z</time>
      </trkpt>
      <trkpt lat="50.726042" lon="6.542877">
        <ele>210.190000</ele>
        <time>2009-08-23T10:23:19Z</time>
      </trkpt>
      <trkpt lat="50.725919" lon="6.542844">
        <ele>210.190000</ele>
        <time>2009-08-23T10:23:12Z</time>
      </trkpt>
      <trkpt lat="50.725846" lon="6.542656">
        <ele>210.670000</ele>
        <time>2009-08-23T10:23:00Z</time>
      </trkpt>
      <trkpt lat="50.725777" lon="6.542554">
        <ele>211.150000</ele>
        <time>2009-08-23T10:22:53Z</time>
      </trkpt>
      <trkpt lat="50.725750" lon="6.542518">
        <ele>211.150000</ele>
        <time>2009-08-23T10:22:50Z</time>
      </trkpt>
      <trkpt lat="50.725705" lon="6.542452">
        <ele>211.630000</ele>
        <time>2009-08-23T10:22:46Z</time>
      </trkpt>
      <trkpt lat="50.725545" lon="6.542326">
        <ele>212.110000</ele>
        <time>2009-08-23T10:22:33Z</time>
      </trkpt>
      <trkpt lat="50.725305" lon="6.542221">
        <ele>213.550000</ele>
        <time>2009-08-23T10:22:16Z</time>
      </trkpt>
      <trkpt lat="50.725173" lon="6.542136">
        <ele>214.030000</ele>
        <time>2009-08-23T10:22:03Z</time>
      </trkpt>
      <trkpt lat="50.725112" lon="6.542117">
        <ele>214.030000</ele>
        <time>2009-08-23T10:21:58Z</time>
      </trkpt>
      <trkpt lat="50.725046" lon="6.542119">
        <ele>214.510000</ele>
        <time>2009-08-23T10:21:50Z</time>
      </trkpt>
      <trkpt lat="50.724873" lon="6.542081">
        <ele>214.990000</ele>
        <time>2009-08-23T10:21:37Z</time>
      </trkpt>
      <trkpt lat="50.724681" lon="6.542120">
        <ele>214.990000</ele>
        <time>2009-08-23T10:21:24Z</time>
      </trkpt>
      <trkpt lat="50.724417" lon="6.542066">
        <ele>215.470000</ele>
        <time>2009-08-23T10:21:07Z</time>
      </trkpt>
      <trkpt lat="50.724162" lon="6.541993">
        <ele>215.470000</ele>
        <time>2009-08-23T10:20:50Z</time>
      </trkpt>
      <trkpt lat="50.724033" lon="6.541878">
        <ele>215.950000</ele>
        <time>2009-08-23T10:20:38Z</time>
      </trkpt>
      <trkpt lat="50.723852" lon="6.541908">
        <ele>215.950000</ele>
        <time>2009-08-23T10:20:26Z</time>
      </trkpt>
      <trkpt lat="50.723583" lon="6.541885">
        <ele>216.910000</ele>
        <time>2009-08-23T10:20:05Z</time>
      </trkpt>
      <trkpt lat="50.723355" lon="6.541839">
        <ele>217.400000</ele>
        <time>2009-08-23T10:19:48Z</time>
      </trkpt>
      <trkpt lat="50.723184" lon="6.541867">
        <ele>217.880000</ele>
        <time>2009-08-23T10:19:33Z</time>
      </trkpt>
      <trkpt lat="50.723127" lon="6.541872">
        <ele>217.880000</ele>
        <time>2009-08-23T10:19:29Z</time>
      </trkpt>
      <trkpt lat="50.723000" lon="6.541987">
        <ele>217.880000</ele>
        <time>2009-08-23T10:19:17Z</time>
      </trkpt>
      <trkpt lat="50.722879" lon="6.542100">
        <ele>217.880000</ele>
        <time>2009-08-23T10:19:08Z</time>
      </trkpt>
      <trkpt lat="50.722725" lon="6.542389">
        <ele>217.880000</ele>
        <time>2009-08-23T10:18:52Z</time>
      </trkpt>
      <trkpt lat="50.722726" lon="6.542438">
        <ele>217.880000</ele>
        <time>2009-08-23T10:18:50Z</time>
      </trkpt>
      <trkpt lat="50.722722" lon="6.542471">
        <ele>217.880000</ele>
        <time>2009-08-23T10:18:48Z</time>
      </trkpt>
      <trkpt lat="50.722660" lon="6.542726">
        <ele>217.400000</ele>
        <time>2009-08-23T10:18:37Z</time>
      </trkpt>
      <trkpt lat="50.722654" lon="6.542856">
        <ele>217.400000</ele>
        <time>2009-08-23T10:18:31Z</time>
      </trkpt>
      <trkpt lat="50.722620" lon="6.543074">
        <ele>216.910000</ele>
        <time>2009-08-23T10:18:19Z</time>
      </trkpt>
      <trkpt lat="50.722539" lon="6.543266">
        <ele>216.910000</ele>
        <time>2009-08-23T10:18:05Z</time>
      </trkpt>
      <trkpt lat="50.722515" lon="6.543329">
        <ele>216.910000</ele>
        <time>2009-08-23T10:18:02Z</time>
      </trkpt>
      <trkpt lat="50.722407" lon="6.543594">
        <ele>216.910000</ele>
        <time>2009-08-23T10:17:49Z</time>
      </trkpt>
      <trkpt lat="50.722358" lon="6.543688">
        <ele>216.910000</ele>
        <time>2009-08-23T10:17:45Z</time>
      </trkpt>
      <trkpt lat="50.722291" lon="6.543881">
        <ele>216.910000</ele>
        <time>2009-08-23T10:17:36Z</time>
      </trkpt>
      <trkpt lat="50.722231" lon="6.544125">
        <ele>216.910000</ele>
        <time>2009-08-23T10:17:24Z</time>
      </trkpt>
      <trkpt lat="50.722179" lon="6.544189">
        <ele>216.910000</ele>
        <time>2009-08-23T10:17:19Z</time>
      </trkpt>
      <trkpt lat="50.722168" lon="6.544225">
        <ele>216.910000</ele>
        <time>2009-08-23T10:17:17Z</time>
      </trkpt>
      <trkpt lat="50.722114" lon="6.544360">
        <ele>216.910000</ele>
        <time>2009-08-23T10:17:09Z</time>
      </trkpt>
      <trkpt lat="50.721991" lon="6.544559">
        <ele>216.910000</ele>
        <time>2009-08-23T10:16:59Z</time>
      </trkpt>
      <trkpt lat="50.721974" lon="6.544597">
        <ele>216.910000</ele>
        <time>2009-08-23T10:16:57Z</time>
      </trkpt>
      <trkpt lat="50.721947" lon="6.544621">
        <ele>216.430000</ele>
        <time>2009-08-23T10:16:42Z</time>
      </trkpt>
      <trkpt lat="50.721868" lon="6.544825">
        <ele>216.430000</ele>
        <time>2009-08-23T10:16:31Z</time>
      </trkpt>
      <trkpt lat="50.721866" lon="6.544862">
        <ele>216.430000</ele>
        <time>2009-08-23T10:16:29Z</time>
      </trkpt>
      <trkpt lat="50.721868" lon="6.545034">
        <ele>216.430000</ele>
        <time>2009-08-23T10:16:20Z</time>
      </trkpt>
      <trkpt lat="50.721915" lon="6.545172">
        <ele>215.950000</ele>
        <time>2009-08-23T10:16:13Z</time>
      </trkpt>
      <trkpt lat="50.721952" lon="6.545436">
        <ele>215.950000</ele>
        <time>2009-08-23T10:16:01Z</time>
      </trkpt>
      <trkpt lat="50.722079" lon="6.545808">
        <ele>215.950000</ele>
        <time>2009-08-23T10:15:43Z</time>
      </trkpt>
      <trkpt lat="50.722107" lon="6.546026">
        <ele>215.470000</ele>
        <time>2009-08-23T10:15:32Z</time>
      </trkpt>
      <trkpt lat="50.722191" lon="6.546281">
        <ele>215.470000</ele>
        <time>2009-08-23T10:15:22Z</time>
      </trkpt>
      <trkpt lat="50.722216" lon="6.546513">
        <ele>214.990000</ele>
        <time>2009-08-23T10:15:09Z</time>
      </trkpt>
      <trkpt lat="50.722264" lon="6.546631">
        <ele>214.510000</ele>
        <time>2009-08-23T10:15:02Z</time>
      </trkpt>
      <trkpt lat="50.722350" lon="6.546883">
        <ele>214.030000</ele>
        <time>2009-08-23T10:14:49Z</time>
      </trkpt>
    </trkseg>
  </trk>

</gpx>
